x

Bw Pioneer Buoy - Walker Ridge 249 (42360) Wave Buoy

6:00pm - Wed 17th Sep 2014 All times are UTC.

  • Sig Wave height 1.6ft
  • Peak Period 6s
  • Wind
    7mph, 11mph gusts
  • Sea Temp 87°f
  • Air Temp 84°f
  • Sea Pressure 1014.5mb

More Historic Weather Station data

Upgrade to MSW Pro to gain access to the past 30 days of data for over 8000 Wavebouys and Weather Stations around the globe.

Join Pro

Comparision Forecast

View Surf forecast
   
Wed 09/17 6:00pm 1.6ft 6s 7 11 mph 1014.5mb 87f 84f
5:00pm 1.6ft 6s 7 11 mph 1015.6mb 87f 84f
4:00pm 1.3ft 6s 7 11 mph 1015.9mb 87f 84f
3:00pm 1.6ft 5s 7 11 mph 1015.5mb 87f 84f
2:00pm 1.6ft 6s 7 11 mph 1015.3mb 87f 84f
1:00pm 1.6ft 6s 7 11 mph 1014.9mb 87f 83f
12:00pm 1.6ft 5s 7 9 mph 1014.5mb 87f 84f
11:00am 1.6ft 6s 2 4 mph 1014.7mb 87f 83f
10:00am 1.6ft 5s 2 4 mph 1014.4mb 87f 83f
9:00am 1.6ft 7s 2 4 mph 1014.7mb 87f 83f
8:00am 1.6ft 6s 4 9 mph 1015mb 87f 84f
7:00am 1.6ft 7s 4
mph
1015.5mb 87f 84f
6:00am 1.6ft 7s 4 7 mph 1016.1mb 87f 84f
5:00am 1.6ft 7s 2 4 mph 1016.4mb 87f 84f
4:00am 2ft 7s 2 7 mph 1016.9mb 88f 84f
3:00am 2ft 6s 2 7 mph 1016.9mb 88f 84f
2:00am 1.6ft 7s 4 7 mph 1016.4mb 88f 84f
1:00am 1.6ft 7s 7
mph
1015.6mb 88f 84f
12:00am 2ft 6s 4 7 mph 1015.3mb 88f 84f
Tue 09/16 11:00pm 2.5ft 7s 2 4 mph 1015.8mb 88f 85f
10:00pm 2ft 6s  -  4 mph 1016mb 88f 85f
9:00pm 2.5ft 6s 4 7 mph 1016.5mb 88f 85f
8:00pm 2.5ft 7s 9 13 mph 1016.9mb 88f 85f
7:00pm 2.5ft 6s 9 13 mph 1017.2mb 88f 85f
6:00pm 2.5ft 6s 11 13 mph 1017.7mb 88f 85f
5:00pm 2.5ft 6s 9 13 mph 1018.3mb 87f 85f
4:00pm 2.5ft 6s 11 16 mph 1019mb 87f 85f
3:00pm 2ft 5s 11 13 mph 1019mb 87f 84f
2:00pm 2.5ft 6s 11 16 mph 1018.5mb 87f 84f
1:00pm 2.5ft 5s 11 13 mph 1018.2mb 87f 84f
12:00pm 2.5ft 6s 11 16 mph 1018.1mb 87f 84f
11:00am 2.5ft 5s 11 13 mph 1018.1mb 87f 84f
10:00am 2.5ft 6s 13 18 mph 1017.7mb 87f 84f
9:00am 3ft 5s 11 16 mph 1018mb 87f 84f
8:00am 3ft 6s 16 20 mph 1018mb 87f 84f
7:00am 3ft 5s 13 18 mph 1018.6mb 87f 84f
6:00am 3ft 5s 4 9 mph 1018.8mb 87f 82f
5:00am 3ft 5s 16 27 mph 1019.3mb 87f 81f
4:00am 3.5ft 6s 25 36 mph 1019.2mb 87f 78f
3:00am 3.5ft 6s 11 25 mph 1019.2mb 87f 84f
2:00am 3.5ft 6s 9 13 mph 1018.7mb 87f 84f
1:00am 3.5ft 6s 11 16 mph 1018mb 88f 84f
12:00am 4ft 6s 13 18 mph 1017.1mb 88f 83f
Mon 09/15 11:00pm 3.5ft 5s 22 31 mph 1017mb 88f 84f
10:00pm 3.5ft 6s 13 20 mph 1017mb 88f 85f
9:00pm 3.5ft 6s 16 20 mph 1017.4mb 88f 85f
8:00pm 3.5ft 5s 16 20 mph 1017.7mb 88f 83f
7:00pm 3.5ft 5s 29 40 mph 1017.6mb 87f 81f
6:00pm 3.5ft 5s 20 25 mph 1018.6mb 87f 85f
5:00pm 3.5ft 4s 18 25 mph 1019mb 87f 84f
4:00pm 3.5ft 5s 20 27 mph 1018.6mb 87f 83f
3:00pm 3.5ft 5s 20 25 mph 1018.6mb 87f 83f
2:00pm 3.5ft 5s 22 27 mph 1018.2mb 87f 82f
1:00pm 3.5ft 5s 22 27 mph 1017.5mb 87f 84f
12:00pm 3.5ft 6s 22 27 mph 1017.1mb 87f 84f
11:00am 3.5ft 6s 18 22 mph 1016.8mb 87f 84f
10:00am 3.5ft 4s 13 18 mph 1016.3mb 87f 83f
9:00am 4ft 6s 22 29 mph 1015.8mb 87f 83f
8:00am 3.5ft 7s 18 22 mph 1015.6mb 87f 83f
7:00am 4.5ft 6s 22 29 mph 1015.8mb 87f 83f
6:00am 3.5ft 7s 27 31 mph 1016.3mb 86f 84f
5:00am 4ft 6s 22 27 mph 1016.3mb 85f 83f
4:00am 4ft 6s 20 27 mph 1016.3mb 85f 84f
3:00am 4.5ft 7s 18 22 mph 1016mb 85f 84f
2:00am 4ft 5s 25 34 mph 1015mb 85f 83f
1:00am 4.5ft 6s 25 31 mph 1014.4mb 85f 83f
12:00am 3.5ft 6s 22 29 mph 1014.1mb 85f 84f
Sun 09/14 11:00pm 4.5ft 7s 20 25 mph 1013.6mb 86f 85f
10:00pm 4.5ft 6s 20 27 mph 1013.6mb 86f 84f
9:00pm 4.5ft 6s 22 29 mph 1013.9mb 86f 85f
8:00pm 3.5ft 6s 25 31 mph 1014.1mb 86f 85f
7:00pm 3ft 6s 18 25 mph 1014.8mb 87f 84f
6:00pm 3ft 6s 25 31 mph 1015.3mb 87f 85f
5:00pm 3.5ft 5s 20 27 mph 1015.9mb 87f 85f
4:00pm 3ft 6s 20 25 mph 1016.3mb 87f 85f
3:00pm 3ft 6s 22 29 mph 1015.5mb 87f 85f
2:00pm 3ft 6s 25 31 mph 1015.2mb 87f 85f
1:00pm 2.5ft 4s 25 31 mph 1014.7mb 87f 84f
12:00pm 3ft 4s 25 31 mph 1014.5mb 87f 84f
11:00am 3ft 4s 22 27 mph 1014.4mb 87f 84f
10:00am 2.5ft 4s 18 25 mph 1014.2mb 86f 84f
9:00am 2.5ft 4s 20 25 mph 1014.5mb 85f 85f
8:00am 2ft 4s 18 22 mph 1015mb 87f 85f
7:00am 2ft 4s 22 27 mph 1015.2mb 87f 85f
6:00am 2ft 4s 18 22 mph 1015.5mb 87f 85f
5:00am 1.6ft 4s 18 22 mph 1016mb 87f 85f
4:00am 2ft 4s 18 22 mph 1016.3mb 87f 84f
3:00am 2ft 4s 18 22 mph 1016mb 87f 85f
2:00am 2ft 4s 20 25 mph 1015.8mb 87f 85f
1:00am 1.6ft 7s 18 22 mph 1015.2mb 86f 84f
12:00am 1.6ft 6s 18 22 mph 1014.4mb 86f 84f
Sat 09/13 11:00pm 2ft 7s 13 18 mph 1014.3mb 86f 85f
10:00pm 1.6ft 5s 16 22 mph 1014.4mb 87f 85f
9:00pm 1.6ft 6s 18 22 mph 1014.5mb 87f 85f
8:00pm 1.6ft 5s 13 20 mph 1015.2mb 87f 85f